»·PEaware :: SWA121 KSEA-KRNO

SWA121 :: KSEA-KRNO

FLIGHT INFORMATION

Flight Status: Arrived
Operator:
Southwest Airlines
More flights by this operator :: More flights under this callsign
Pilot: Andrew M. (139)
Aircraft: BOEING 737-800
(B738)
More flights by this aircraft type
Origin: KSEA Seattle-Tacoma Intl
United States
Destination: KRNO Reno/Tahoe Intl
United States
More flights between these airports :: More routes between these airports
Route: SUMMA1 LKV HARTT HARTT1
File this flight plan on PilotEdge
Remarks: PBN / A1B1C1D1S1S2 DOF / 181221 REG / N608BT EET / KZOA0103 OPR / SWA PER / C RMK / TCAS SIMBRIEF
Altitude:
(Current/Filed)
35,000ft
Speed:
(Current/Filed)
459kts
Departed: 20-Dec-18 07:20 PM
Arrived: 20-Dec-18 08:41 PM
Distance/Time
Traveled:
489nm/1:21
Distance/Time
To Go:
Arrived

Flight Plot

Page will automatically refresh every two minutes.

Flight plan parsing failed; only flown route is shown


Map Options




Map Legend


Flown Route
Filed Route
Departure Airport
Arrival Airport
Navaid (VOR, NDB)
Fix

Horizontal Profiles

Position Reports

Time Latitude Longitude Heading Altitude Ground
Speed
20-Dec-18 18:54 47.446523 -122.303346 228 394ft 0kts
20-Dec-18 18:55 47.446523 -122.303346 228 394ft 0kts
20-Dec-18 18:55 47.446523 -122.303346 228 394ft 0kts
20-Dec-18 18:57 47.446523 -122.303346 228 394ft 0kts
20-Dec-18 18:57 47.446523 -122.303346 228 394ft 0kts
20-Dec-18 18:59 47.446523 -122.303346 228 394ft 0kts
20-Dec-18 19:00 47.446523 -122.303346 228 394ft 0kts
20-Dec-18 19:00 47.446523 -122.303346 228 394ft 0kts
20-Dec-18 19:02 47.446523 -122.303346 228 394ft 0kts
20-Dec-18 19:02 47.446523 -122.303346 228 394ft 0kts
20-Dec-18 19:03 47.446523 -122.303346 228 394ft 0kts
20-Dec-18 19:04 47.446523 -122.303346 228 394ft 0kts
20-Dec-18 19:05 47.446573 -122.303262 231 394ft 2kts
20-Dec-18 19:06 47.446856 -122.302524 294 394ft 1kts
20-Dec-18 19:07 47.446800 -122.302396 304 393ft 0kts
20-Dec-18 19:08 47.446800 -122.302395 304 393ft 0kts
20-Dec-18 19:09 47.446800 -122.302395 304 393ft 0kts
20-Dec-18 19:10 47.446800 -122.302395 304 393ft 0kts
20-Dec-18 19:11 47.447566 -122.303993 305 398ft 7kts
20-Dec-18 19:12 47.447925 -122.306044 322 400ft 5kts
20-Dec-18 19:13 47.450214 -122.306266 358 410ft 8kts
20-Dec-18 19:14 47.451872 -122.306227 0 418ft 7kts
20-Dec-18 19:15 47.455233 -122.306179 1 434ft 16kts
20-Dec-18 19:16 47.460975 -122.306174 0 436ft 22kts
20-Dec-18 19:17 47.463365 -122.306148 344 420ft 0kts
20-Dec-18 19:18 47.463435 -122.307617 200 409ft 6kts
20-Dec-18 19:19 47.449067 -122.307858 182 405ft 143kts
20-Dec-18 19:20 47.407645 -122.302379 182 2233ft 161kts
20-Dec-18 19:21 47.359331 -122.303139 188 4078ft 191kts
20-Dec-18 19:22 47.302420 -122.307170 192 6091ft 219kts
20-Dec-18 19:23 47.234390 -122.305949 172 7994ft 265kts
20-Dec-18 19:24 47.163985 -122.264066 169 10218ft 281kts
20-Dec-18 19:25 47.083998 -122.223707 168 11913ft 313kts
20-Dec-18 19:26 46.999153 -122.180640 170 13922ft 334kts
20-Dec-18 19:27 46.910783 -122.135753 171 16322ft 340kts
20-Dec-18 19:28 46.821221 -122.090439 173 18610ft 344kts
20-Dec-18 19:29 46.731433 -122.045136 174 21021ft 340kts
20-Dec-18 19:30 46.642139 -122.000306 174 23184ft 338kts
20-Dec-18 19:31 46.553083 -121.963237 178 24965ft 335kts
20-Dec-18 19:32 46.461348 -121.928161 178 26354ft 346kts
20-Dec-18 19:33 46.367293 -121.892276 178 27649ft 356kts
20-Dec-18 19:34 46.270823 -121.855601 178 28812ft 365kts
20-Dec-18 19:35 46.172496 -121.818207 179 30325ft 363kts
20-Dec-18 19:36 46.073762 -121.780989 179 31263ft 370kts
20-Dec-18 19:37 45.973428 -121.743222 179 32178ft 377kts
20-Dec-18 19:38 45.871998 -121.705090 179 33213ft 379kts
20-Dec-18 19:39 45.768863 -121.666497 179 33926ft 388kts
20-Dec-18 19:40 45.664401 -121.627517 178 34838ft 390kts
20-Dec-18 19:41 45.557375 -121.587861 177 35040ft 405kts
20-Dec-18 19:42 45.448681 -121.547443 178 35059ft 405kts
20-Dec-18 19:43 45.337668 -121.506548 177 35060ft 416kts
20-Dec-18 19:44 45.225961 -121.465365 178 35059ft 415kts
20-Dec-18 19:45 45.114489 -121.424491 178 35058ft 415kts
20-Dec-18 19:46 45.001621 -121.383482 175 35067ft 428kts
20-Dec-18 19:47 44.884828 -121.341013 176 35058ft 436kts
20-Dec-18 19:48 44.767221 -121.298394 176 35062ft 436kts
20-Dec-18 19:49 44.650294 -121.256216 176 35061ft 436kts
20-Dec-18 19:50 44.533203 -121.214145 176 35061ft 435kts
20-Dec-18 19:51 44.416176 -121.172248 176 35052ft 435kts
20-Dec-18 19:52 44.299032 -121.130465 176 35039ft 434kts
20-Dec-18 19:53 44.182362 -121.089036 177 35037ft 434kts
20-Dec-18 19:54 44.064944 -121.047488 177 35035ft 435kts
20-Dec-18 19:55 43.947782 -121.006123 177 35033ft 430kts
20-Dec-18 19:56 43.831753 -120.965388 177 35041ft 431kts
20-Dec-18 19:57 43.715732 -120.924786 177 35040ft 431kts
20-Dec-18 19:58 43.599708 -120.884339 177 35039ft 431kts
20-Dec-18 19:59 43.484061 -120.844188 178 35039ft 428kts
20-Dec-18 20:00 43.368629 -120.804301 178 35038ft 428kts
20-Dec-18 20:01 43.252949 -120.764480 178 35046ft 428kts
20-Dec-18 20:02 43.137779 -120.724987 178 35051ft 427kts
20-Dec-18 20:03 43.022899 -120.685746 178 35064ft 425kts
20-Dec-18 20:04 42.908320 -120.646798 178 35063ft 425kts
20-Dec-18 20:05 42.794587 -120.608287 178 35074ft 424kts
20-Dec-18 20:06 42.680487 -120.569819 178 35077ft 423kts
20-Dec-18 20:07 42.566884 -120.531644 178 35089ft 420kts
20-Dec-18 20:08 42.453192 -120.494602 180 35091ft 417kts
20-Dec-18 20:09 42.340121 -120.461040 180 35091ft 417kts
20-Dec-18 20:10 42.226753 -120.427154 180 35088ft 416kts
20-Dec-18 20:11 42.113868 -120.393529 180 35088ft 416kts
20-Dec-18 20:12 42.001018 -120.360044 180 35091ft 416kts
20-Dec-18 20:13 41.889065 -120.327027 181 35084ft 414kts
20-Dec-18 20:14 41.776331 -120.293938 181 35088ft 416kts
20-Dec-18 20:15 41.663344 -120.260859 181 35088ft 417kts
20-Dec-18 20:16 41.550217 -120.227790 181 35095ft 416kts
20-Dec-18 20:17 41.437354 -120.194868 181 35091ft 417kts
20-Dec-18 20:18 41.323673 -120.161820 181 35095ft 417kts
20-Dec-18 20:19 41.210370 -120.128998 181 35099ft 418kts
20-Dec-18 20:20 41.096848 -120.096256 181 35097ft 421kts
20-Dec-18 20:21 40.982695 -120.063409 180 35095ft 420kts
20-Dec-18 20:22 40.871285 -120.031344 181 34097ft 413kts
20-Dec-18 20:23 40.757983 -119.996394 178 30121ft 432kts
20-Dec-18 20:24 40.641868 -119.958563 176 27051ft 417kts
20-Dec-18 20:25 40.530981 -119.922878 174 24295ft 405kts
20-Dec-18 20:26 40.423939 -119.888490 174 21802ft 389kts
20-Dec-18 20:27 40.321435 -119.855711 174 19462ft 372kts
20-Dec-18 20:28 40.224019 -119.824621 174 17481ft 351kts
20-Dec-18 20:29 40.130498 -119.794968 174 15402ft 337kts
20-Dec-18 20:30 40.042051 -119.767433 181 13792ft 302kts
20-Dec-18 20:31 39.965130 -119.767662 189 12474ft 262kts
20-Dec-18 20:32 39.893266 -119.768138 187 11198ft 259kts
20-Dec-18 20:33 39.823261 -119.768318 186 10013ft 241kts
20-Dec-18 20:34 39.761672 -119.768423 186 9585ft 211kts
20-Dec-18 20:35 39.703960 -119.768680 184 8424ft 202kts
20-Dec-18 20:36 39.650829 -119.768915 180 7292ft 179kts
20-Dec-18 20:37 39.605893 -119.768902 182 6379ft 149kts
20-Dec-18 20:38 39.565771 -119.769147 176 5570ft 145kts
20-Dec-18 20:39 39.527016 -119.769122 175 4759ft 137kts
20-Dec-18 20:40 39.497117 -119.769265 180 4407ft 19kts
20-Dec-18 20:41 39.492843 -119.770030 232 4408ft 6kts
20-Dec-18 20:43 39.492676 -119.770737 248 4410ft 4kts
20-Dec-18 20:44 39.493728 -119.771500 359 4410ft 10kts
20-Dec-18 20:45 39.496454 -119.771514 0 4410ft 8kts
20-Dec-18 20:46 39.499271 -119.771463 0 4410ft 12kts
20-Dec-18 20:47 39.502509 -119.771493 4 4410ft 8kts
20-Dec-18 20:48 39.503665 -119.771788 293 4411ft 0kts
20-Dec-18 20:49 39.503969 -119.772687 343 4412ft 4kts
20-Dec-18 20:50 39.504424 -119.772775 354 4413ft 0kts
20-Dec-18 20:51 39.504464 -119.772780 354 4413ft 0kts
20-Dec-18 20:52 39.504464 -119.772780 354 4413ft 0kts
20-Dec-18 20:53 39.504464 -119.772780 354 4413ft 0kts
20-Dec-18 20:54 39.504464 -119.772780 354 4413ft 0kts
20-Dec-18 20:55 39.504464 -119.772780 354 4413ft 0kts

Navigation Log

Ident Type
Flight plan parsing failed, navigation log unavailable